createdAt,value
2017-07-20T00:00:57.596Z,87.00
2017-07-20T00:03:25.840Z,87.30
2017-07-20T00:05:54.816Z,86.60
2017-07-20T00:08:23.245Z,86.60
2017-07-20T00:10:51.769Z,86.50
2017-07-20T00:13:19.996Z,86.60
2017-07-20T00:15:48.456Z,86.70
2017-07-20T00:18:16.668Z,87.20
2017-07-20T00:20:45.253Z,87.40
2017-07-20T00:23:13.756Z,87.10
2017-07-20T00:25:41.998Z,87.00
2017-07-20T00:28:10.359Z,87.00
2017-07-20T00:30:38.597Z,86.70
2017-07-20T00:33:06.841Z,87.00
2017-07-20T00:35:35.060Z,87.00
2017-07-20T00:38:03.274Z,86.80
2017-07-20T00:40:31.516Z,86.60
2017-07-20T00:42:59.780Z,86.20
2017-07-20T00:45:28.017Z,85.70
2017-07-20T00:47:56.498Z,86.20
2017-07-20T00:50:24.972Z,85.80
2017-07-20T00:52:53.953Z,87.00
2017-07-20T00:55:22.178Z,87.00
2017-07-20T00:57:50.621Z,87.20
2017-07-20T01:00:20.117Z,86.80
2017-07-20T01:02:49.250Z,86.60
2017-07-20T01:05:17.477Z,86.60
2017-07-20T01:07:46.094Z,86.10
2017-07-20T01:10:14.380Z,85.80
2017-07-20T01:12:42.797Z,86.20
2017-07-20T01:15:11.243Z,86.20
2017-07-20T01:17:39.461Z,85.90
2017-07-20T01:20:07.681Z,86.60
2017-07-20T01:22:35.913Z,87.20
2017-07-20T01:25:04.144Z,87.70
2017-07-20T01:27:32.385Z,87.70
2017-07-20T01:30:00.618Z,87.60
2017-07-20T01:32:28.833Z,87.30
2017-07-20T01:34:57.089Z,87.90
2017-07-20T01:37:25.540Z,88.80
2017-07-20T01:39:53.772Z,87.70
2017-07-20T01:42:22.052Z,87.90
2017-07-20T01:44:50.345Z,87.40
2017-07-20T01:47:18.636Z,88.90
2017-07-20T01:49:46.854Z,89.20
2017-07-20T01:52:15.126Z,89.40
2017-07-20T01:54:43.375Z,90.10
2017-07-20T01:57:11.598Z,90.40
2017-07-20T01:59:39.861Z,89.60
2017-07-20T02:02:08.305Z,89.40
2017-07-20T02:04:36.560Z,89.80
2017-07-20T02:07:05.540Z,90.20
2017-07-20T02:09:33.800Z,90.20
2017-07-20T02:12:02.269Z,90.20
2017-07-20T02:14:30.520Z,90.60
2017-07-20T02:16:58.896Z,90.80
2017-07-20T02:19:27.572Z,90.90
2017-07-20T02:21:55.817Z,90.70
2017-07-20T02:24:24.048Z,90.70
2017-07-20T02:26:52.323Z,90.40
2017-07-20T02:29:20.598Z,90.40
2017-07-20T02:31:49.492Z,90.40
2017-07-20T02:34:17.760Z,90.50
2017-07-20T02:36:46.005Z,90.50
2017-07-20T02:39:14.208Z,90.70
2017-07-20T02:41:42.600Z,90.60
2017-07-20T02:44:12.591Z,90.80
2017-07-20T02:46:40.798Z,90.80
2017-07-20T02:49:09.105Z,90.70
2017-07-20T02:51:37.335Z,90.60
2017-07-20T02:54:06.559Z,90.60
2017-07-20T02:56:34.928Z,90.60
2017-07-20T02:59:03.606Z,90.60
2017-07-20T03:01:31.978Z,90.60
2017-07-20T03:04:00.180Z,90.40
2017-07-20T03:06:28.579Z,90.20
2017-07-20T03:08:56.822Z,90.00
2017-07-20T03:11:25.411Z,90.30
2017-07-20T03:13:53.663Z,90.60
2017-07-20T03:16:22.250Z,90.40
2017-07-20T03:18:50.514Z,90.50
2017-07-20T03:21:19.132Z,90.60
2017-07-20T03:23:47.388Z,90.50
2017-07-20T03:26:16.509Z,90.40
2017-07-20T03:28:44.815Z,90.30
2017-07-20T03:31:13.945Z,90.40
2017-07-20T03:33:42.174Z,90.40
2017-07-20T03:36:10.402Z,90.50
2017-07-20T03:38:38.742Z,90.50
2017-07-20T03:41:06.973Z,90.50
2017-07-20T03:43:35.998Z,90.80
2017-07-20T03:46:04.254Z,90.80
2017-07-20T03:48:32.749Z,90.90
2017-07-20T03:51:01.042Z,91.00
2017-07-20T03:53:29.285Z,91.40
2017-07-20T03:55:57.512Z,91.10
2017-07-20T03:58:25.772Z,91.00
2017-07-20T04:00:54.008Z,91.20
2017-07-20T04:03:23.009Z,90.70
2017-07-20T04:05:51.605Z,90.70
2017-07-20T04:08:19.845Z,90.70
2017-07-20T04:10:48.074Z,90.60
2017-07-20T04:13:16.543Z,90.50
2017-07-20T04:15:45.671Z,90.50
2017-07-20T04:18:13.920Z,90.40
2017-07-20T04:20:42.316Z,90.30
2017-07-20T04:23:10.960Z,90.30
2017-07-20T04:25:39.188Z,90.30
2017-07-20T04:28:07.412Z,90.00
2017-07-20T04:30:35.680Z,89.90
2017-07-20T04:33:03.918Z,90.20
2017-07-20T04:35:32.132Z,90.10
2017-07-20T04:38:01.155Z,90.00
2017-07-20T04:40:29.375Z,90.30
2017-07-20T04:42:57.839Z,90.60
2017-07-20T04:45:26.309Z,90.60
2017-07-20T04:47:54.804Z,90.30
2017-07-20T04:50:23.084Z,90.10
2017-07-20T04:52:51.426Z,90.00
2017-07-20T04:55:19.666Z,90.10
2017-07-20T04:57:47.880Z,90.00
2017-07-20T05:00:16.870Z,90.20
2017-07-20T05:02:45.325Z,90.20
2017-07-20T05:05:13.539Z,90.20
2017-07-20T05:07:42.524Z,90.40
2017-07-20T05:10:10.749Z,90.30
2017-07-20T05:12:38.986Z,90.00
2017-07-20T05:15:07.993Z,88.80
2017-07-20T05:17:36.219Z,89.30
2017-07-20T05:20:04.692Z,89.00
2017-07-20T05:22:32.920Z,89.50
2017-07-20T05:25:01.909Z,89.80
2017-07-20T05:27:30.157Z,89.80
2017-07-20T05:29:58.587Z,89.60
2017-07-20T05:32:26.829Z,89.60
2017-07-20T05:34:55.048Z,89.40
2017-07-20T05:37:23.325Z,88.70
2017-07-20T05:39:51.943Z,88.60
2017-07-20T05:42:20.192Z,89.20
2017-07-20T05:44:48.417Z,88.20
2017-07-20T05:47:16.940Z,88.10
2017-07-20T05:49:45.240Z,87.80
2017-07-20T05:52:13.625Z,86.00
2017-07-20T05:54:41.844Z,85.30
2017-07-20T05:57:10.090Z,85.40
2017-07-20T05:59:38.353Z,85.20
2017-07-20T06:02:06.865Z,83.00
2017-07-20T06:04:35.265Z,82.20
2017-07-20T06:07:04.252Z,82.60
2017-07-20T06:09:32.493Z,82.00
2017-07-20T06:12:00.701Z,82.60
2017-07-20T06:14:28.917Z,82.90
2017-07-20T06:16:57.156Z,84.30
2017-07-20T06:19:25.737Z,84.70
2017-07-20T06:21:53.972Z,84.10
2017-07-20T06:24:22.353Z,83.30
2017-07-20T06:26:50.558Z,82.80
2017-07-20T06:29:18.908Z,82.30
2017-07-20T06:31:47.157Z,81.20
2017-07-20T06:34:15.724Z,81.20
2017-07-20T06:36:43.945Z,81.60
2017-07-20T06:39:12.195Z,81.00
2017-07-20T06:41:40.915Z,80.70
2017-07-20T06:44:09.374Z,81.10
2017-07-20T06:46:37.609Z,79.50
2017-07-20T06:49:05.842Z,78.50
2017-07-20T06:51:35.628Z,77.20
2017-07-20T06:54:04.036Z,77.10
2017-07-20T06:56:32.473Z,77.60
2017-07-20T06:59:00.709Z,77.60
2017-07-20T07:01:28.924Z,77.70
2017-07-20T07:03:57.948Z,78.90
2017-07-20T07:06:26.195Z,78.80
2017-07-20T07:08:54.425Z,78.80
2017-07-20T07:11:22.879Z,79.00
2017-07-20T07:13:51.156Z,78.90
2017-07-20T07:16:19.372Z,78.20
2017-07-20T07:18:47.572Z,77.40
2017-07-20T07:21:15.836Z,72.10
2017-07-20T07:23:44.272Z,70.20
2017-07-20T07:26:12.481Z,66.20
2017-07-20T07:28:40.913Z,64.20
2017-07-20T07:31:09.152Z,64.90
2017-07-20T07:33:37.381Z,64.40
2017-07-20T07:36:05.589Z,64.30
2017-07-20T07:38:33.918Z,66.60
2017-07-20T07:41:02.925Z,66.70
2017-07-20T07:43:31.148Z,66.70
2017-07-20T07:45:59.376Z,66.70
2017-07-20T07:48:27.621Z,68.80
2017-07-20T07:50:56.050Z,71.00
2017-07-20T07:53:24.437Z,63.10
2017-07-20T07:55:52.671Z,63.50
2017-07-20T07:58:21.683Z,64.50
2017-07-20T08:00:50.148Z,64.10
2017-07-20T08:03:18.385Z,63.90
2017-07-20T08:05:46.624Z,63.40
2017-07-20T08:08:14.846Z,64.20
2017-07-20T08:13:12.358Z,63.80
2017-07-20T08:15:40.586Z,65.90
2017-07-20T08:18:08.992Z,66.30
2017-07-20T08:20:37.224Z,68.60
2017-07-20T08:23:05.444Z,67.20
2017-07-20T08:25:33.860Z,67.10
2017-07-20T08:28:02.981Z,67.50
2017-07-20T08:30:31.188Z,67.50
2017-07-20T08:32:59.419Z,68.30
2017-07-20T08:35:27.679Z,69.30
2017-07-20T08:37:55.904Z,70.60
2017-07-20T08:40:24.391Z,70.70
2017-07-20T08:42:52.646Z,69.80
2017-07-20T08:45:20.873Z,70.40
2017-07-20T08:47:49.101Z,68.90
2017-07-20T08:50:17.312Z,68.50
2017-07-20T08:52:45.524Z,65.30
2017-07-20T08:55:14.542Z,68.10
2017-07-20T08:57:42.976Z,68.80
2017-07-20T09:00:11.229Z,67.20
2017-07-20T09:02:39.690Z,66.90
2017-07-20T09:05:08.116Z,67.10
2017-07-20T09:07:36.348Z,66.80
2017-07-20T09:10:04.728Z,69.00
2017-07-20T09:12:33.013Z,67.80
2017-07-20T09:15:01.560Z,66.30
2017-07-20T09:17:29.736Z,66.10
2017-07-20T09:19:58.727Z,64.50
2017-07-20T09:22:27.098Z,64.60
2017-07-20T09:24:55.318Z,65.40
2017-07-20T09:27:23.732Z,63.40
2017-07-20T09:29:51.956Z,63.70
2017-07-20T09:32:20.211Z,64.20
2017-07-20T09:34:48.729Z,63.90
2017-07-20T09:37:16.946Z,66.10
2017-07-20T09:39:45.168Z,67.10
2017-07-20T09:42:13.395Z,68.20
2017-07-20T09:44:41.612Z,68.20
2017-07-20T09:47:10.610Z,67.40
2017-07-20T09:49:38.808Z,67.40
2017-07-20T09:52:07.016Z,68.10
2017-07-20T09:54:35.422Z,66.00
2017-07-20T09:57:03.709Z,66.10
2017-07-20T09:59:31.907Z,67.30
2017-07-20T10:02:00.190Z,68.10
2017-07-20T10:04:28.395Z,68.80
2017-07-20T10:06:56.660Z,69.20
2017-07-20T10:09:24.889Z,71.00
2017-07-20T10:11:53.111Z,72.50
2017-07-20T10:14:21.365Z,72.40
2017-07-20T10:16:49.851Z,72.30
2017-07-20T10:19:18.142Z,71.90
2017-07-20T10:21:46.351Z,71.70
2017-07-20T10:24:14.581Z,73.80
2017-07-20T10:26:43.038Z,73.30
2017-07-20T10:29:11.225Z,72.50
2017-07-20T10:31:40.652Z,72.90
2017-07-20T10:34:08.859Z,72.90
2017-07-20T10:36:37.095Z,72.90
2017-07-20T10:39:05.316Z,72.60
2017-07-20T10:41:33.532Z,71.80
2017-07-20T10:44:01.809Z,72.90
2017-07-20T10:46:30.113Z,72.20
2017-07-20T10:48:58.401Z,71.80
2017-07-20T10:51:26.613Z,72.60
2017-07-20T10:53:54.873Z,71.40
2017-07-20T10:56:24.095Z,69.80
2017-07-20T10:58:52.486Z,71.60
2017-07-20T11:01:20.731Z,73.70
2017-07-20T11:03:49.236Z,72.30
2017-07-20T11:06:17.740Z,72.40
2017-07-20T11:08:45.972Z,72.30
2017-07-20T11:11:14.172Z,73.00
2017-07-20T11:13:42.873Z,71.50
2017-07-20T11:16:12.008Z,72.70
2017-07-20T11:18:40.213Z,72.20
2017-07-20T11:21:08.508Z,72.40
2017-07-20T11:23:36.754Z,69.90
2017-07-20T11:26:05.856Z,67.90
2017-07-20T11:28:34.204Z,66.60
2017-07-20T11:31:02.728Z,67.40
2017-07-20T11:33:30.970Z,65.30
2017-07-20T11:35:59.466Z,62.20
2017-07-20T11:38:27.706Z,63.30
2017-07-20T11:40:56.704Z,58.70
2017-07-20T11:43:25.001Z,58.70
2017-07-20T11:45:53.232Z,59.00
2017-07-20T11:48:21.477Z,58.90
2017-07-20T11:50:49.702Z,59.80
2017-07-20T11:53:18.839Z,59.20
2017-07-20T11:55:47.088Z,59.10
2017-07-20T11:58:16.089Z,58.80
2017-07-20T12:00:44.316Z,58.80
2017-07-20T12:03:12.524Z,58.50
2017-07-20T12:05:41.718Z,59.30
2017-07-20T12:08:09.885Z,59.20
2017-07-20T12:10:38.093Z,58.20
2017-07-20T12:13:06.494Z,56.10
2017-07-20T12:15:35.624Z,55.20
2017-07-20T12:18:03.860Z,54.80
2017-07-20T12:20:32.109Z,54.80
2017-07-20T12:23:00.399Z,55.30
2017-07-20T12:25:29.392Z,56.20
2017-07-20T12:27:57.647Z,56.20
2017-07-20T12:30:25.860Z,56.00
2017-07-20T12:32:54.545Z,55.70
2017-07-20T12:35:22.794Z,55.00
2017-07-20T12:37:51.016Z,55.70
2017-07-20T12:40:19.249Z,57.20
2017-07-20T12:42:47.481Z,56.10
2017-07-20T12:45:15.776Z,56.00
2017-07-20T12:47:44.209Z,56.30
2017-07-20T12:50:12.425Z,55.40
2017-07-20T12:52:40.655Z,54.70
2017-07-20T12:55:08.865Z,56.00
2017-07-20T12:57:37.127Z,54.30
2017-07-20T13:00:05.671Z,54.50
2017-07-20T13:02:33.939Z,55.00
2017-07-20T13:05:02.164Z,54.10
2017-07-20T13:07:30.404Z,53.70
2017-07-20T13:09:59.433Z,52.60
2017-07-20T13:12:27.672Z,52.40
2017-07-20T13:14:55.883Z,52.70
2017-07-20T13:17:24.113Z,53.30
2017-07-20T13:19:52.335Z,53.20
2017-07-20T13:22:20.565Z,51.40
2017-07-20T13:24:48.764Z,49.60
2017-07-20T13:27:17.772Z,47.10
2017-07-20T13:29:45.997Z,47.10
2017-07-20T13:32:14.213Z,48.40
2017-07-20T13:34:43.215Z,47.20
2017-07-20T13:37:11.440Z,47.10
2017-07-20T13:39:39.700Z,45.80
2017-07-20T13:42:08.160Z,45.80
2017-07-20T13:44:36.396Z,46.80
2017-07-20T13:47:04.617Z,47.80
2017-07-20T13:49:33.069Z,45.40
2017-07-20T13:52:01.290Z,45.10
2017-07-20T13:54:29.624Z,45.90
2017-07-20T13:56:58.029Z,47.90
2017-07-20T13:59:26.279Z,47.20
2017-07-20T14:01:54.582Z,47.40
2017-07-20T14:04:22.899Z,48.20
2017-07-20T14:06:51.084Z,47.70
2017-07-20T14:09:19.469Z,48.60
2017-07-20T14:11:47.819Z,47.30
2017-07-20T14:14:16.704Z,46.50
2017-07-20T14:16:45.904Z,46.00
2017-07-20T14:19:14.179Z,45.90
2017-07-20T14:21:42.730Z,45.50
2017-07-20T14:24:11.067Z,45.90
2017-07-20T14:26:39.283Z,45.40
2017-07-20T14:29:08.233Z,45.10
2017-07-20T14:31:36.460Z,45.30
2017-07-20T14:34:04.681Z,45.40
2017-07-20T14:36:33.125Z,45.40
2017-07-20T14:39:01.391Z,44.90
2017-07-20T14:41:29.701Z,43.90
2017-07-20T14:43:57.958Z,43.50
2017-07-20T14:46:26.961Z,44.00
2017-07-20T14:48:55.201Z,44.00
2017-07-20T14:51:23.645Z,44.50
2017-07-20T14:53:51.868Z,45.10
2017-07-20T14:56:20.155Z,46.10
2017-07-20T14:58:49.270Z,45.60
2017-07-20T15:01:17.472Z,45.60
2017-07-20T15:03:45.864Z,46.80
2017-07-20T15:06:14.096Z,46.80
2017-07-20T15:08:42.340Z,46.90
2017-07-20T15:11:10.719Z,47.40
2017-07-20T15:13:39.144Z,48.20
2017-07-20T15:16:07.468Z,48.40
2017-07-20T15:18:35.693Z,48.30
2017-07-20T15:21:04.682Z,49.00
2017-07-20T15:23:32.879Z,48.90
2017-07-20T15:26:01.124Z,49.30
2017-07-20T15:28:29.329Z,49.50
2017-07-20T15:30:57.569Z,49.70
2017-07-20T15:33:25.989Z,49.70
2017-07-20T15:35:54.463Z,49.70
2017-07-20T15:38:22.688Z,49.50
2017-07-20T15:40:51.018Z,49.60
2017-07-20T15:43:19.245Z,50.00
2017-07-20T15:45:47.445Z,50.20
2017-07-20T15:48:15.684Z,49.80
2017-07-20T15:50:43.937Z,50.10
2017-07-20T15:53:12.485Z,50.10
2017-07-20T15:55:40.652Z,49.80
2017-07-20T15:58:08.845Z,49.10
2017-07-20T16:00:37.088Z,49.10
2017-07-20T16:03:05.301Z,49.20
2017-07-20T16:05:34.368Z,48.20
2017-07-20T16:08:02.580Z,48.20
2017-07-20T16:10:30.801Z,48.80
2017-07-20T16:12:59.014Z,48.70
2017-07-20T16:15:28.080Z,49.10
2017-07-20T16:17:56.306Z,49.00
2017-07-20T16:20:24.570Z,45.30
2017-07-20T16:22:52.834Z,43.80
2017-07-20T16:25:21.086Z,42.30
2017-07-20T16:27:49.501Z,41.50
2017-07-20T16:30:18.648Z,42.40
2017-07-20T16:32:46.872Z,42.40
2017-07-20T16:35:15.865Z,40.40
2017-07-20T16:37:44.136Z,40.40
2017-07-20T16:40:12.376Z,42.10
2017-07-20T16:42:40.648Z,39.90
2017-07-20T16:45:08.880Z,40.60
2017-07-20T16:47:37.110Z,39.30
2017-07-20T16:50:05.313Z,39.00
2017-07-20T16:52:33.575Z,39.40
2017-07-20T16:55:01.768Z,40.70
2017-07-20T16:57:29.985Z,38.60
2017-07-20T16:59:58.449Z,39.00
2017-07-20T17:02:27.129Z,38.80
2017-07-20T17:04:55.401Z,39.50
2017-07-20T17:07:23.654Z,39.40
2017-07-20T17:09:51.871Z,39.40
2017-07-20T17:12:20.132Z,39.90
2017-07-20T17:14:49.133Z,39.30
2017-07-20T17:17:17.607Z,39.30
2017-07-20T17:19:45.798Z,38.20
2017-07-20T17:22:14.792Z,40.10
2017-07-20T17:24:43.117Z,40.10
2017-07-20T17:27:11.361Z,38.20
2017-07-20T17:29:39.748Z,38.00
2017-07-20T17:32:08.713Z,38.10
2017-07-20T17:34:36.965Z,38.10
2017-07-20T17:37:05.182Z,38.70
2017-07-20T17:39:33.463Z,38.90
2017-07-20T17:42:01.773Z,39.20
2017-07-20T17:44:30.044Z,39.60
2017-07-20T17:46:58.541Z,40.20
2017-07-20T17:49:26.746Z,43.70
2017-07-20T17:51:55.003Z,41.10
2017-07-20T17:54:23.642Z,39.80
2017-07-20T17:56:51.984Z,40.60
2017-07-20T17:59:20.360Z,41.10
2017-07-20T18:01:48.570Z,42.00
2017-07-20T18:04:16.929Z,41.60
2017-07-20T18:06:45.124Z,42.50
2017-07-20T18:09:13.384Z,42.00
2017-07-20T18:11:41.696Z,42.60
2017-07-20T18:14:09.966Z,44.00
2017-07-20T18:16:38.318Z,43.40
2017-07-20T18:19:20.298Z,44.20
2017-07-20T18:21:48.808Z,46.90
2017-07-20T18:24:17.017Z,47.80
2017-07-20T18:26:45.273Z,50.80
2017-07-20T18:29:13.649Z,52.70
2017-07-20T18:31:41.877Z,53.80
2017-07-20T18:34:11.436Z,54.00
2017-07-20T18:36:39.709Z,53.60
2017-07-20T18:39:08.200Z,55.50
2017-07-20T18:41:36.417Z,57.00
2017-07-20T18:44:04.623Z,57.70
2017-07-20T18:46:34.114Z,57.50
2017-07-20T18:49:02.410Z,58.10
2017-07-20T18:51:31.435Z,59.10
2017-07-20T18:53:59.754Z,59.00
2017-07-20T18:56:28.904Z,59.50
2017-07-20T18:58:57.987Z,59.20
2017-07-20T19:01:26.249Z,60.70
2017-07-20T19:03:54.507Z,60.90
2017-07-20T19:06:22.766Z,62.20
2017-07-20T19:08:51.209Z,62.70
2017-07-20T19:11:20.246Z,64.00
2017-07-20T19:13:48.474Z,64.00
2017-07-20T19:16:16.713Z,63.40
2017-07-20T19:18:45.028Z,64.30
2017-07-20T19:21:13.318Z,64.60
2017-07-20T19:23:41.506Z,64.60
2017-07-20T19:26:09.902Z,65.50
2017-07-20T19:28:38.116Z,66.30
2017-07-20T19:31:06.352Z,66.30
2017-07-20T19:33:34.572Z,65.60
2017-07-20T19:36:02.903Z,66.90
2017-07-20T19:38:31.128Z,67.00
2017-07-20T19:40:59.349Z,67.50
2017-07-20T19:43:27.594Z,67.40
2017-07-20T19:45:56.004Z,67.90
2017-07-20T19:48:24.399Z,68.10
2017-07-20T19:50:52.581Z,68.60
2017-07-20T19:53:20.830Z,69.40
2017-07-20T19:55:49.105Z,69.50
2017-07-20T19:58:17.376Z,69.70
2017-07-20T20:00:45.612Z,70.20
2017-07-20T20:03:13.833Z,70.10
2017-07-20T20:05:42.059Z,69.90
2017-07-20T20:08:10.276Z,70.10
2017-07-20T20:10:39.433Z,69.90
2017-07-20T20:13:07.722Z,71.00
2017-07-20T20:15:35.961Z,70.30
2017-07-20T20:18:04.208Z,70.50
2017-07-20T20:20:32.428Z,70.80
2017-07-20T20:23:00.786Z,70.10
2017-07-20T20:25:29.016Z,70.50
2017-07-20T20:27:57.251Z,71.30
2017-07-20T20:30:25.644Z,70.10
2017-07-20T20:32:53.855Z,70.10
2017-07-20T20:35:22.096Z,70.90
2017-07-20T20:37:50.340Z,71.10
2017-07-20T20:40:18.566Z,71.40
2017-07-20T20:42:46.959Z,71.40
2017-07-20T20:45:15.309Z,72.40
2017-07-20T20:47:43.575Z,71.70
2017-07-20T20:50:11.835Z,72.00
2017-07-20T20:52:40.313Z,72.60
2017-07-20T20:55:08.585Z,72.60
2017-07-20T20:57:37.100Z,72.70
2017-07-20T21:00:05.350Z,73.00
2017-07-20T21:02:33.589Z,72.80
2017-07-20T21:05:01.805Z,73.60
2017-07-20T21:07:30.800Z,73.30
2017-07-20T21:09:59.286Z,73.20
2017-07-20T21:12:28.429Z,72.80
2017-07-20T21:14:56.642Z,72.80
2017-07-20T21:17:25.039Z,72.50
2017-07-20T21:19:53.448Z,72.30
2017-07-20T21:22:21.680Z,72.40
2017-07-20T21:24:50.254Z,72.90
2017-07-20T21:27:18.467Z,73.10
2017-07-20T21:29:47.483Z,73.10
2017-07-20T21:32:15.744Z,73.10
2017-07-20T21:34:44.237Z,73.30
2017-07-20T21:37:12.448Z,73.30
2017-07-20T21:39:41.460Z,73.50
2017-07-20T21:42:09.861Z,73.30
2017-07-20T21:44:38.137Z,73.40
2017-07-20T21:47:06.755Z,73.80
2017-07-20T21:49:35.109Z,73.60
2017-07-20T21:52:03.326Z,74.00
2017-07-20T21:54:31.564Z,74.90
2017-07-20T21:57:00.572Z,75.40
2017-07-20T21:59:28.772Z,75.20
2017-07-20T22:01:57.026Z,74.90
2017-07-20T22:04:25.480Z,75.20
2017-07-20T22:06:53.727Z,74.80
2017-07-20T22:09:21.967Z,74.90
2017-07-20T22:11:50.189Z,74.80
2017-07-20T22:14:18.416Z,74.80
2017-07-20T22:16:46.706Z,74.90
2017-07-20T22:19:15.003Z,74.80
2017-07-20T22:21:43.240Z,74.90
2017-07-20T22:24:12.316Z,75.30
2017-07-20T22:26:40.533Z,75.20
2017-07-20T22:29:08.749Z,75.30
2017-07-20T22:31:37.008Z,75.50
2017-07-20T22:34:05.246Z,75.60
2017-07-20T22:36:34.224Z,76.10
2017-07-20T22:39:02.468Z,75.90
2017-07-20T22:41:30.676Z,76.00
2017-07-20T22:43:58.988Z,75.90
2017-07-20T22:46:27.196Z,75.00
2017-07-20T22:48:55.402Z,75.00
2017-07-20T22:51:23.685Z,74.40
2017-07-20T22:53:52.288Z,74.60
2017-07-20T22:56:20.565Z,74.60
2017-07-20T22:58:48.833Z,74.80
2017-07-20T23:01:17.937Z,75.20
2017-07-20T23:03:52.514Z,75.50
2017-07-20T23:06:21.032Z,75.50
2017-07-20T23:08:50.041Z,75.30
2017-07-20T23:11:18.379Z,75.30
2017-07-20T23:13:46.705Z,76.00
2017-07-20T23:16:14.937Z,75.30
2017-07-20T23:18:43.148Z,75.60
2017-07-20T23:21:11.376Z,75.70
2017-07-20T23:23:39.599Z,75.30
2017-07-20T23:26:08.588Z,76.00
2017-07-20T23:28:36.806Z,76.00
2017-07-20T23:31:05.044Z,75.80
2017-07-20T23:33:34.084Z,76.10
2017-07-20T23:36:02.305Z,75.50
2017-07-20T23:38:30.533Z,75.60
2017-07-20T23:40:58.736Z,75.40
2017-07-20T23:43:27.959Z,75.60
2017-07-20T23:45:56.220Z,74.80
2017-07-20T23:48:24.435Z,74.90
2017-07-20T23:50:53.401Z,75.70
2017-07-20T23:53:21.836Z,75.70
2017-07-20T23:55:50.103Z,75.70
2017-07-20T23:58:18.583Z,76.10
